sensor_id;sensor_type;location;lat;lon;timestamp;P1;durP1;ratioP1;P2;durP2;ratioP2
72621;SDS011;60665;53.506;9.582;2022-12-07T03:48:20;7.35;;;2.13;;
72621;SDS011;60665;53.506;9.582;2022-12-07T03:50:43;9.20;;;1.88;;
72621;SDS011;60665;53.506;9.582;2022-12-07T03:53:15;6.35;;;1.50;;
72621;SDS011;60665;53.506;9.582;2022-12-07T03:55:44;7.88;;;1.58;;
72621;SDS011;60665;53.506;9.582;2022-12-07T03:58:12;5.70;;;1.20;;
72621;SDS011;60665;53.506;9.582;2022-12-07T04:00:42;4.65;;;1.40;;
72621;SDS011;60665;53.506;9.582;2022-12-07T04:03:08;6.25;;;1.50;;
72621;SDS011;60665;53.506;9.582;2022-12-07T04:05:34;4.10;;;1.38;;
72621;SDS011;60665;53.506;9.582;2022-12-07T04:07:59;5.40;;;1.50;;
72621;SDS011;60665;53.506;9.582;2022-12-07T04:10:25;6.50;;;1.48;;
72621;SDS011;60665;53.506;9.582;2022-12-07T04:12:50;4.03;;;1.33;;
72621;SDS011;60665;53.506;9.582;2022-12-07T04:15:15;5.38;;;1.40;;
72621;SDS011;60665;53.506;9.582;2022-12-07T04:17:41;4.30;;;1.35;;
72621;SDS011;60665;53.506;9.582;2022-12-07T04:20:06;3.60;;;1.30;;
72621;SDS011;60665;53.506;9.582;2022-12-07T04:22:32;6.40;;;1.60;;
72621;SDS011;60665;53.506;9.582;2022-12-07T04:24:58;4.28;;;1.30;;
72621;SDS011;60665;53.506;9.582;2022-12-07T04:27:23;6.40;;;1.40;;
72621;SDS011;60665;53.506;9.582;2022-12-07T04:29:48;5.20;;;1.40;;
72621;SDS011;60665;53.506;9.582;2022-12-07T04:32:14;5.78;;;1.38;;
72621;SDS011;60665;53.506;9.582;2022-12-07T04:34:39;3.35;;;1.27;;
72621;SDS011;60665;53.506;9.582;2022-12-07T04:37:05;3.55;;;1.35;;
72621;SDS011;60665;53.506;9.582;2022-12-07T04:39:31;4.13;;;1.23;;
72621;SDS011;60665;53.506;9.582;2022-12-07T04:41:57;3.72;;;1.30;;
72621;SDS011;60665;53.506;9.582;2022-12-07T04:44:24;3.72;;;1.40;;
72621;SDS011;60665;53.506;9.582;2022-12-07T04:46:50;3.28;;;1.30;;
72621;SDS011;60665;53.506;9.582;2022-12-07T04:49:16;5.05;;;1.55;;
72621;SDS011;60665;53.506;9.582;2022-12-07T04:51:42;6.10;;;1.45;;
72621;SDS011;60665;53.506;9.582;2022-12-07T04:54:08;5.57;;;1.30;;
72621;SDS011;60665;53.506;9.582;2022-12-07T04:56:33;4.70;;;1.33;;
72621;SDS011;60665;53.506;9.582;2022-12-07T04:59:00;3.45;;;1.40;;
72621;SDS011;60665;53.506;9.582;2022-12-07T05:01:25;4.05;;;1.38;;
72621;SDS011;60665;53.506;9.582;2022-12-07T05:03:51;3.10;;;1.20;;
72621;SDS011;60665;53.506;9.582;2022-12-07T05:06:16;5.30;;;1.38;;
72621;SDS011;60665;53.506;9.582;2022-12-07T05:08:42;4.70;;;1.50;;
72621;SDS011;60665;53.506;9.582;2022-12-07T05:11:08;4.53;;;1.45;;
72621;SDS011;60665;53.506;9.582;2022-12-07T05:13:34;2.85;;;1.10;;
72621;SDS011;60665;53.506;9.582;2022-12-07T05:16:00;3.42;;;1.05;;
72621;SDS011;60665;53.506;9.582;2022-12-07T05:18:25;5.18;;;1.13;;
72621;SDS011;60665;53.506;9.582;2022-12-07T05:20:51;4.88;;;1.17;;
72621;SDS011;60665;53.506;9.582;2022-12-07T05:23:16;3.97;;;1.33;;
72621;SDS011;60665;53.506;9.582;2022-12-07T05:25:42;4.53;;;1.10;;
72621;SDS011;60665;53.506;9.582;2022-12-07T05:28:08;4.50;;;1.13;;
72621;SDS011;60665;53.506;9.582;2022-12-07T05:30:34;4.72;;;1.00;;
72621;SDS011;60665;53.506;9.582;2022-12-07T05:32:59;3.13;;;0.88;;
72621;SDS011;60665;53.506;9.582;2022-12-07T05:35:25;4.43;;;1.00;;
72621;SDS011;60665;53.506;9.582;2022-12-07T05:37:50;4.10;;;1.30;;
72621;SDS011;60665;53.506;9.582;2022-12-07T05:40:16;4.57;;;1.20;;
72621;SDS011;60665;53.506;9.582;2022-12-07T05:42:41;4.13;;;1.08;;
72621;SDS011;60665;53.506;9.582;2022-12-07T05:45:07;3.60;;;1.05;;
72621;SDS011;60665;53.506;9.582;2022-12-07T05:47:33;4.10;;;1.10;;
72621;SDS011;60665;53.506;9.582;2022-12-07T05:49:59;7.18;;;1.20;;
72621;SDS011;60665;53.506;9.582;2022-12-07T05:52:24;3.08;;;1.08;;
72621;SDS011;60665;53.506;9.582;2022-12-07T05:54:50;3.28;;;0.85;;
72621;SDS011;60665;53.506;9.582;2022-12-07T05:57:16;4.72;;;0.93;;
72621;SDS011;60665;53.506;9.582;2022-12-07T05:59:41;1.95;;;0.90;;
72621;SDS011;60665;53.506;9.582;2022-12-07T06:02:08;3.80;;;0.90;;
72621;SDS011;60665;53.506;9.582;2022-12-07T06:04:36;3.80;;;0.90;;
72621;SDS011;60665;53.506;9.582;2022-12-07T06:07:03;2.83;;;1.00;;
72621;SDS011;60665;53.506;9.582;2022-12-07T06:09:30;4.07;;;0.82;;
72621;SDS011;60665;53.506;9.582;2022-12-07T06:11:56;4.25;;;0.85;;
72621;SDS011;60665;53.506;9.582;2022-12-07T06:14:40;2.53;;;0.80;;
72621;SDS011;60665;53.506;9.582;2022-12-07T06:17:06;3.28;;;0.85;;
72621;SDS011;60665;53.506;9.582;2022-12-07T06:19:32;2.92;;;0.80;;
72621;SDS011;60665;53.506;9.582;2022-12-07T06:21:57;4.50;;;1.00;;
72621;SDS011;60665;53.506;9.582;2022-12-07T06:24:23;3.40;;;1.10;;
72621;SDS011;60665;53.506;9.582;2022-12-07T06:26:49;3.05;;;1.02;;
72621;SDS011;60665;53.506;9.582;2022-12-07T06:29:14;5.68;;;0.80;;
72621;SDS011;60665;53.506;9.582;2022-12-07T06:31:40;2.60;;;0.60;;
72621;SDS011;60665;53.506;9.582;2022-12-07T06:34:08;2.97;;;0.80;;
72621;SDS011;60665;53.506;9.582;2022-12-07T06:36:35;3.10;;;0.80;;
72621;SDS011;60665;53.506;9.582;2022-12-07T06:39:00;3.33;;;0.68;;
72621;SDS011;60665;53.506;9.582;2022-12-07T06:41:26;3.58;;;0.68;;
72621;SDS011;60665;53.506;9.582;2022-12-07T06:43:51;2.08;;;0.70;;
72621;SDS011;60665;53.506;9.582;2022-12-07T06:46:17;1.75;;;0.52;;
72621;SDS011;60665;53.506;9.582;2022-12-07T06:48:42;4.10;;;0.63;;
72621;SDS011;60665;53.506;9.582;2022-12-07T06:51:08;1.90;;;0.60;;
72621;SDS011;60665;53.506;9.582;2022-12-07T06:53:34;2.22;;;0.57;;
72621;SDS011;60665;53.506;9.582;2022-12-07T06:55:59;2.95;;;0.90;;
72621;SDS011;60665;53.506;9.582;2022-12-07T06:58:25;2.97;;;0.80;;
72621;SDS011;60665;53.506;9.582;2022-12-07T07:00:50;2.80;;;0.65;;
72621;SDS011;60665;53.506;9.582;2022-12-07T07:03:16;4.35;;;0.68;;
72621;SDS011;60665;53.506;9.582;2022-12-07T07:05:42;2.67;;;0.68;;
72621;SDS011;60665;53.506;9.582;2022-12-07T07:08:08;1.42;;;0.52;;
72621;SDS011;60665;53.506;9.582;2022-12-07T07:10:33;2.50;;;0.82;;
72621;SDS011;60665;53.506;9.582;2022-12-07T16:17:32;7.20;;;1.40;;
72621;SDS011;60665;53.506;9.582;2022-12-07T16:19:58;5.72;;;1.08;;
72621;SDS011;60665;53.506;9.582;2022-12-07T16:22:23;5.28;;;1.90;;
72621;SDS011;60665;53.506;9.582;2022-12-07T16:24:49;5.72;;;1.42;;
72621;SDS011;60665;53.506;9.582;2022-12-07T16:27:14;4.53;;;1.20;;
72621;SDS011;60665;53.506;9.582;2022-12-07T16:29:39;5.13;;;1.38;;
72621;SDS011;60665;53.506;9.582;2022-12-07T16:32:05;4.78;;;1.58;;
72621;SDS011;60665;53.506;9.582;2022-12-07T16:34:30;4.00;;;1.10;;
72621;SDS011;60665;53.506;9.582;2022-12-07T16:36:56;4.82;;;1.75;;
72621;SDS011;60665;53.506;9.582;2022-12-07T16:39:21;7.50;;;1.52;;
72621;SDS011;60665;53.506;9.582;2022-12-07T16:41:46;6.70;;;1.35;;
72621;SDS011;60665;53.506;9.582;2022-12-07T16:44:12;4.65;;;1.40;;
72621;SDS011;60665;53.506;9.582;2022-12-07T16:46:38;5.45;;;1.23;;
72621;SDS011;60665;53.506;9.582;2022-12-07T16:49:04;3.90;;;1.10;;
72621;SDS011;60665;53.506;9.582;2022-12-07T16:51:29;3.72;;;1.33;;
72621;SDS011;60665;53.506;9.582;2022-12-07T16:53:55;7.55;;;1.50;;
72621;SDS011;60665;53.506;9.582;2022-12-07T16:56:21;6.53;;;2.05;;
72621;SDS011;60665;53.506;9.582;2022-12-07T16:58:46;6.32;;;2.28;;
72621;SDS011;60665;53.506;9.582;2022-12-07T17:01:15;9.57;;;3.15;;
72621;SDS011;60665;53.506;9.582;2022-12-07T17:03:42;9.43;;;3.45;;
72621;SDS011;60665;53.506;9.582;2022-12-07T17:06:15;7.53;;;2.38;;
72621;SDS011;60665;53.506;9.582;2022-12-07T17:08:42;4.85;;;2.28;;
72621;SDS011;60665;53.506;9.582;2022-12-07T17:11:15;6.22;;;2.20;;
72621;SDS011;60665;53.506;9.582;2022-12-07T17:13:44;5.80;;;1.92;;
72621;SDS011;60665;53.506;9.582;2022-12-07T17:16:29;6.55;;;1.98;;
72621;SDS011;60665;53.506;9.582;2022-12-07T17:18:55;5.38;;;1.73;;
72621;SDS011;60665;53.506;9.582;2022-12-07T17:21:20;5.10;;;2.13;;
72621;SDS011;60665;53.506;9.582;2022-12-07T17:23:46;5.72;;;2.10;;
72621;SDS011;60665;53.506;9.582;2022-12-07T17:26:13;7.57;;;2.72;;
72621;SDS011;60665;53.506;9.582;2022-12-07T17:28:40;9.15;;;4.15;;
72621;SDS011;60665;53.506;9.582;2022-12-07T17:31:06;8.63;;;3.42;;
72621;SDS011;60665;53.506;9.582;2022-12-07T17:33:33;6.68;;;2.05;;
72621;SDS011;60665;53.506;9.582;2022-12-07T17:35:58;6.38;;;2.13;;
72621;SDS011;60665;53.506;9.582;2022-12-07T17:38:24;8.50;;;2.30;;
72621;SDS011;60665;53.506;9.582;2022-12-07T17:40:50;5.35;;;2.22;;
72621;SDS011;60665;53.506;9.582;2022-12-07T17:43:15;4.50;;;1.60;;
72621;SDS011;60665;53.506;9.582;2022-12-07T17:45:40;5.75;;;1.80;;
72621;SDS011;60665;53.506;9.582;2022-12-07T17:48:06;4.85;;;1.70;;
72621;SDS011;60665;53.506;9.582;2022-12-07T17:50:31;6.45;;;1.90;;
72621;SDS011;60665;53.506;9.582;2022-12-07T17:53:15;5.78;;;1.73;;
72621;SDS011;60665;53.506;9.582;2022-12-07T17:55:40;5.00;;;1.67;;
72621;SDS011;60665;53.506;9.582;2022-12-07T17:58:06;3.92;;;1.60;;
72621;SDS011;60665;53.506;9.582;2022-12-07T18:00:31;3.60;;;1.50;;
72621;SDS011;60665;53.506;9.582;2022-12-07T18:03:02;4.50;;;1.20;;
72621;SDS011;60665;53.506;9.582;2022-12-07T18:05:29;5.95;;;1.40;;
72621;SDS011;60665;53.506;9.582;2022-12-07T18:07:54;4.45;;;1.52;;
72621;SDS011;60665;53.506;9.582;2022-12-07T18:10:20;5.47;;;1.40;;
72621;SDS011;60665;53.506;9.582;2022-12-07T18:12:45;5.63;;;1.25;;
72621;SDS011;60665;53.506;9.582;2022-12-07T18:15:10;7.00;;;1.50;;
72621;SDS011;60665;53.506;9.582;2022-12-07T18:17:36;4.35;;;1.45;;
72621;SDS011;60665;53.506;9.582;2022-12-07T18:20:01;4.80;;;2.03;;
72621;SDS011;60665;53.506;9.582;2022-12-07T18:22:27;6.95;;;2.45;;
72621;SDS011;60665;53.506;9.582;2022-12-07T18:24:52;4.60;;;1.92;;
72621;SDS011;60665;53.506;9.582;2022-12-07T18:27:19;4.38;;;1.52;;
72621;SDS011;60665;53.506;9.582;2022-12-07T18:29:44;4.60;;;1.75;;
72621;SDS011;60665;53.506;9.582;2022-12-07T18:32:09;6.50;;;1.33;;
72621;SDS011;60665;53.506;9.582;2022-12-07T18:34:35;5.80;;;1.50;;
72621;SDS011;60665;53.506;9.582;2022-12-07T18:37:00;4.32;;;1.80;;
72621;SDS011;60665;53.506;9.582;2022-12-07T18:39:26;6.72;;;1.40;;
72621;SDS011;60665;53.506;9.582;2022-12-07T18:41:51;3.63;;;1.27;;
72621;SDS011;60665;53.506;9.582;2022-12-07T18:44:16;7.65;;;1.70;;
72621;SDS011;60665;53.506;9.582;2022-12-07T18:46:42;8.52;;;2.50;;
72621;SDS011;60665;53.506;9.582;2022-12-07T18:49:08;11.88;;;2.80;;
72621;SDS011;60665;53.506;9.582;2022-12-07T18:51:36;7.22;;;2.50;;
72621;SDS011;60665;53.506;9.582;2022-12-07T18:54:01;6.90;;;2.53;;
72621;SDS011;60665;53.506;9.582;2022-12-07T18:56:28;6.93;;;2.92;;
72621;SDS011;60665;53.506;9.582;2022-12-07T18:58:59;12.43;;;3.55;;
72621;SDS011;60665;53.506;9.582;2022-12-07T19:01:45;7.72;;;3.03;;
72621;SDS011;60665;53.506;9.582;2022-12-07T19:04:13;6.03;;;2.75;;
72621;SDS011;60665;53.506;9.582;2022-12-07T19:06:42;10.35;;;3.55;;
72621;SDS011;60665;53.506;9.582;2022-12-07T19:09:08;10.60;;;4.43;;
72621;SDS011;60665;53.506;9.582;2022-12-07T19:11:34;5.55;;;2.70;;
72621;SDS011;60665;53.506;9.582;2022-12-07T19:14:28;4.35;;;1.73;;
72621;SDS011;60665;53.506;9.582;2022-12-07T19:16:55;4.20;;;1.90;;
72621;SDS011;60665;53.506;9.582;2022-12-07T19:19:23;5.20;;;1.90;;
72621;SDS011;60665;53.506;9.582;2022-12-07T19:21:53;8.05;;;1.58;;
72621;SDS011;60665;53.506;9.582;2022-12-07T19:24:18;5.22;;;1.52;;
72621;SDS011;60665;53.506;9.582;2022-12-07T19:26:44;9.27;;;1.95;;
72621;SDS011;60665;53.506;9.582;2022-12-07T19:29:10;5.10;;;1.52;;
72621;SDS011;60665;53.506;9.582;2022-12-07T19:31:35;4.93;;;1.40;;
72621;SDS011;60665;53.506;9.582;2022-12-07T19:34:01;6.70;;;1.85;;
72621;SDS011;60665;53.506;9.582;2022-12-07T19:36:31;4.78;;;1.77;;
72621;SDS011;60665;53.506;9.582;2022-12-07T19:38:56;4.95;;;1.65;;
72621;SDS011;60665;53.506;9.582;2022-12-07T19:41:22;6.00;;;1.85;;
72621;SDS011;60665;53.506;9.582;2022-12-07T19:46:25;7.10;;;1.80;;
72621;SDS011;60665;53.506;9.582;2022-12-07T19:48:54;4.60;;;1.80;;
72621;SDS011;60665;53.506;9.582;2022-12-07T19:51:20;6.43;;;2.22;;
72621;SDS011;60665;53.506;9.582;2022-12-07T19:53:45;6.13;;;2.10;;
72621;SDS011;60665;53.506;9.582;2022-12-07T19:56:14;6.53;;;2.20;;
72621;SDS011;60665;53.506;9.582;2022-12-07T19:58:41;9.15;;;2.10;;
72621;SDS011;60665;53.506;9.582;2022-12-07T20:01:06;5.45;;;2.13;;
72621;SDS011;60665;53.506;9.582;2022-12-07T20:03:32;5.10;;;1.98;;
72621;SDS011;60665;53.506;9.582;2022-12-07T20:05:57;4.47;;;2.15;;
72621;SDS011;60665;53.506;9.582;2022-12-07T20:08:23;11.02;;;3.45;;
72621;SDS011;60665;53.506;9.582;2022-12-07T20:10:48;7.70;;;2.22;;
72621;SDS011;60665;53.506;9.582;2022-12-07T20:13:17;12.98;;;4.53;;
72621;SDS011;60665;53.506;9.582;2022-12-07T20:15:52;7.85;;;2.53;;
72621;SDS011;60665;53.506;9.582;2022-12-07T20:18:18;14.77;;;3.38;;
72621;SDS011;60665;53.506;9.582;2022-12-07T20:21:02;5.82;;;2.80;;
72621;SDS011;60665;53.506;9.582;2022-12-07T20:23:27;7.35;;;2.60;;
72621;SDS011;60665;53.506;9.582;2022-12-07T20:25:53;7.35;;;2.97;;
72621;SDS011;60665;53.506;9.582;2022-12-07T20:28:19;7.38;;;3.85;;
72621;SDS011;60665;53.506;9.582;2022-12-07T20:30:48;7.72;;;2.97;;
72621;SDS011;60665;53.506;9.582;2022-12-07T20:33:14;10.43;;;3.30;;
72621;SDS011;60665;53.506;9.582;2022-12-07T20:35:40;7.53;;;2.70;;
72621;SDS011;60665;53.506;9.582;2022-12-07T20:38:05;6.45;;;2.45;;
72621;SDS011;60665;53.506;9.582;2022-12-07T20:40:32;7.60;;;2.67;;
72621;SDS011;60665;53.506;9.582;2022-12-07T20:42:57;5.82;;;2.35;;
72621;SDS011;60665;53.506;9.582;2022-12-07T20:45:23;6.40;;;2.20;;
72621;SDS011;60665;53.506;9.582;2022-12-07T20:47:48;6.07;;;2.25;;
72621;SDS011;60665;53.506;9.582;2022-12-07T20:50:13;8.98;;;3.33;;
72621;SDS011;60665;53.506;9.582;2022-12-07T20:52:39;7.00;;;2.80;;
72621;SDS011;60665;53.506;9.582;2022-12-07T20:55:04;8.52;;;2.40;;
72621;SDS011;60665;53.506;9.582;2022-12-07T20:57:30;7.18;;;2.80;;
72621;SDS011;60665;53.506;9.582;2022-12-07T20:59:55;6.90;;;2.67;;
72621;SDS011;60665;53.506;9.582;2022-12-07T21:02:21;7.93;;;2.28;;
72621;SDS011;60665;53.506;9.582;2022-12-07T21:04:46;8.48;;;3.63;;
72621;SDS011;60665;53.506;9.582;2022-12-07T21:07:12;9.30;;;4.00;;
72621;SDS011;60665;53.506;9.582;2022-12-07T21:09:37;6.45;;;3.22;;
72621;SDS011;60665;53.506;9.582;2022-12-07T21:12:02;9.07;;;3.85;;
72621;SDS011;60665;53.506;9.582;2022-12-07T21:14:28;9.18;;;4.03;;
72621;SDS011;60665;53.506;9.582;2022-12-07T21:16:53;8.95;;;4.28;;
72621;SDS011;60665;53.506;9.582;2022-12-07T21:19:19;12.95;;;5.18;;
72621;SDS011;60665;53.506;9.582;2022-12-07T21:21:44;11.70;;;5.55;;
72621;SDS011;60665;53.506;9.582;2022-12-07T21:24:09;10.88;;;5.00;;
72621;SDS011;60665;53.506;9.582;2022-12-07T21:26:36;16.70;;;6.90;;
72621;SDS011;60665;53.506;9.582;2022-12-07T21:29:02;20.98;;;8.43;;
72621;SDS011;60665;53.506;9.582;2022-12-07T21:31:29;15.93;;;7.05;;
72621;SDS011;60665;53.506;9.582;2022-12-07T21:33:55;15.93;;;6.15;;
72621;SDS011;60665;53.506;9.582;2022-12-07T21:36:22;15.30;;;6.63;;
72621;SDS011;60665;53.506;9.582;2022-12-07T21:38:49;19.75;;;7.95;;
72621;SDS011;60665;53.506;9.582;2022-12-07T21:41:16;15.30;;;6.47;;
